createdAt,value
2023-05-14T00:02:00.255Z,69.10
2023-05-14T00:04:27.597Z,69.20
2023-05-14T00:06:54.782Z,69.30
2023-05-14T00:09:21.865Z,69.30
2023-05-14T00:11:49.527Z,69.40
2023-05-14T00:14:16.727Z,69.40
2023-05-14T00:16:43.881Z,69.50
2023-05-14T00:19:11.350Z,69.50
2023-05-14T00:21:38.509Z,69.60
2023-05-14T00:24:05.951Z,69.60
2023-05-14T00:26:33.096Z,69.60
2023-05-14T00:29:00.438Z,69.60
2023-05-14T00:31:27.597Z,69.70
2023-05-14T00:34:00.771Z,69.70
2023-05-14T00:36:29.874Z,69.80
2023-05-14T00:38:57.253Z,69.70
2023-05-14T00:41:24.449Z,69.70
2023-05-14T00:43:51.508Z,69.70
2023-05-14T00:46:18.767Z,69.70
2023-05-14T00:48:46.041Z,69.60
2023-05-14T00:51:13.418Z,69.60
2023-05-14T00:53:40.750Z,69.60
2023-05-14T00:56:08.749Z,69.60
2023-05-14T00:58:35.833Z,69.60
2023-05-14T01:01:04.446Z,69.80
2023-05-14T01:03:32.264Z,69.80
2023-05-14T01:06:17.679Z,69.80
2023-05-14T01:09:37.097Z,70.00
2023-05-14T01:12:26.387Z,70.20
2023-05-14T01:15:12.807Z,69.80
2023-05-14T01:18:22.062Z,70.30
2023-05-14T01:20:52.945Z,70.00
2023-05-14T01:23:41.426Z,69.80
2023-05-14T01:26:10.560Z,69.80
2023-05-14T01:28:38.634Z,69.80
2023-05-14T01:31:12.940Z,69.80
2023-05-14T01:33:44.138Z,69.90
2023-05-14T01:37:05.739Z,69.90
2023-05-14T01:39:38.070Z,69.90
2023-05-14T01:42:12.920Z,69.80
2023-05-14T01:44:41.083Z,70.00
2023-05-14T01:47:08.112Z,70.00
2023-05-14T01:49:37.282Z,70.10
2023-05-14T01:52:08.838Z,70.20
2023-05-14T01:55:17.823Z,70.40
2023-05-14T01:57:46.532Z,71.10
2023-05-14T02:00:14.312Z,70.40
2023-05-14T02:02:41.606Z,70.40
2023-05-14T02:05:11.293Z,70.50
2023-05-14T02:07:39.515Z,70.50
2023-05-14T02:10:08.004Z,70.50
2023-05-14T02:12:36.871Z,70.60
2023-05-14T02:15:09.072Z,70.60
2023-05-14T02:20:45.598Z,70.60
2023-05-14T02:23:15.689Z,71.00
2023-05-14T02:25:44.826Z,70.30
2023-05-14T02:28:11.985Z,70.40
2023-05-14T02:30:39.114Z,70.50
2023-05-14T02:33:06.632Z,70.50
2023-05-14T02:35:33.899Z,70.50
2023-05-14T02:38:01.056Z,70.50
2023-05-14T02:40:33.286Z,70.50
2023-05-14T02:43:07.691Z,70.60
2023-05-14T02:45:35.110Z,70.60
2023-05-14T02:48:11.349Z,70.60
2023-05-14T02:50:44.936Z,70.60
2023-05-14T02:53:24.367Z,70.70
2023-05-14T02:55:51.468Z,70.60
2023-05-14T02:58:24.549Z,70.70
2023-05-14T03:04:17.160Z,70.80
2023-05-14T03:07:10.141Z,70.60
2023-05-14T03:10:02.142Z,70.70
2023-05-14T03:12:31.104Z,70.70
2023-05-14T03:14:58.692Z,70.60
2023-05-14T03:18:06.600Z,70.70
2023-05-14T03:20:34.229Z,71.30
2023-05-14T03:26:33.258Z,70.70
2023-05-14T03:29:24.723Z,70.60
2023-05-14T03:31:52.009Z,70.60
2023-05-14T03:34:19.601Z,70.60
2023-05-14T03:39:28.886Z,70.60
2023-05-14T03:42:14.860Z,70.60
2023-05-14T03:44:43.286Z,70.60
2023-05-14T03:47:18.768Z,70.60
2023-05-14T03:49:54.288Z,70.60
2023-05-14T03:55:31.595Z,70.70
2023-05-14T03:58:04.387Z,70.60
2023-05-14T04:03:30.166Z,70.60
2023-05-14T04:06:11.964Z,70.60
2023-05-14T04:08:39.524Z,70.60
2023-05-14T04:11:06.654Z,70.50
2023-05-14T04:13:58.549Z,70.50
2023-05-14T04:16:26.535Z,70.60
2023-05-14T04:18:54.008Z,70.60
2023-05-14T04:29:46.398Z,71.00
2023-05-14T04:32:16.444Z,70.80
2023-05-14T04:34:44.051Z,70.80
2023-05-14T04:37:16.046Z,70.80
2023-05-14T04:39:49.995Z,70.70
2023-05-14T04:42:22.124Z,70.80
2023-05-14T04:44:54.676Z,70.90
2023-05-14T04:47:26.641Z,70.90
2023-05-14T04:49:59.238Z,70.90
2023-05-14T04:52:26.977Z,70.90
2023-05-14T04:55:24.040Z,70.90
2023-05-14T04:58:10.019Z,70.90
2023-05-14T05:01:06.517Z,70.90
2023-05-14T05:03:34.530Z,70.90
2023-05-14T05:08:43.981Z,70.80
2023-05-14T05:11:11.071Z,70.80
2023-05-14T05:13:51.353Z,70.70
2023-05-14T05:16:18.592Z,70.80
2023-05-14T05:18:46.053Z,70.80
2023-05-14T05:26:46.680Z,70.80
2023-05-14T05:29:13.836Z,70.80
2023-05-14T05:31:41.830Z,70.80
2023-05-14T05:34:08.968Z,70.90
2023-05-14T05:36:57.132Z,70.90
2023-05-14T05:39:29.299Z,71.00
2023-05-14T05:41:56.807Z,71.00
2023-05-14T05:44:27.983Z,70.90
2023-05-14T05:47:07.249Z,70.80
2023-05-14T05:49:39.547Z,70.70
2023-05-14T05:52:07.149Z,70.60
2023-05-14T05:54:41.103Z,70.50
2023-05-14T05:57:31.616Z,70.40
2023-05-14T06:02:57.008Z,70.60
2023-05-14T06:05:26.746Z,70.40
2023-05-14T06:07:56.260Z,70.40
2023-05-14T06:10:25.743Z,70.60
2023-05-14T06:12:52.969Z,70.60
2023-05-14T06:15:20.257Z,70.60
2023-05-14T06:17:47.424Z,70.60
2023-05-14T06:20:14.607Z,70.60
2023-05-14T06:22:46.051Z,70.50
2023-05-14T06:25:13.390Z,70.50
2023-05-14T06:27:40.710Z,70.40
2023-05-14T06:30:08.634Z,70.30
2023-05-14T06:32:35.771Z,70.10
2023-05-14T06:35:02.965Z,70.00
2023-05-14T06:37:30.157Z,70.00
2023-05-14T06:39:57.999Z,69.90
2023-05-14T06:42:25.304Z,69.70
2023-05-14T06:44:52.509Z,69.60
2023-05-14T06:47:19.590Z,69.70
2023-05-14T06:49:46.741Z,69.80
2023-05-14T06:52:13.833Z,69.80
2023-05-14T06:54:40.919Z,69.80
2023-05-14T06:57:07.957Z,69.80
2023-05-14T06:59:35.064Z,69.70
2023-05-14T07:02:03.259Z,69.60
2023-05-14T07:04:30.413Z,69.60
2023-05-14T07:06:57.506Z,69.70
2023-05-14T07:09:24.656Z,69.70
2023-05-14T07:11:51.829Z,69.80
2023-05-14T07:14:18.894Z,69.70
2023-05-14T07:16:47.092Z,69.70
2023-05-14T07:19:14.434Z,69.50
2023-05-14T07:21:41.524Z,69.40
2023-05-14T07:24:08.770Z,69.50
2023-05-14T07:26:35.914Z,69.60
2023-05-14T07:29:02.961Z,69.70
2023-05-14T07:31:30.144Z,69.80
2023-05-14T07:33:57.682Z,69.60
2023-05-14T07:36:25.198Z,69.50
2023-05-14T07:38:52.296Z,69.40
2023-05-14T07:41:19.346Z,69.30
2023-05-14T07:43:46.488Z,69.40
2023-05-14T07:46:14.160Z,69.30
2023-05-14T07:48:41.274Z,69.30
2023-05-14T07:51:08.257Z,69.20
2023-05-14T07:53:35.429Z,69.10
2023-05-14T07:56:02.539Z,69.10
2023-05-14T07:58:30.281Z,68.90
2023-05-14T08:00:57.773Z,68.90
2023-05-14T08:03:25.192Z,68.90
2023-05-14T08:05:52.620Z,68.90
2023-05-14T08:08:19.805Z,68.70
2023-05-14T08:10:46.898Z,68.60
2023-05-14T08:13:13.931Z,68.70
2023-05-14T08:15:41.135Z,68.90
2023-05-14T08:18:08.802Z,69.00
2023-05-14T08:20:35.948Z,69.00
2023-05-14T08:23:03.247Z,68.70
2023-05-14T08:25:30.293Z,68.60
2023-05-14T08:28:00.939Z,68.40
2023-05-14T08:30:28.521Z,68.30
2023-05-14T08:32:55.810Z,68.40
2023-05-14T08:35:22.902Z,68.40
2023-05-14T08:37:52.811Z,68.40
2023-05-14T08:40:20.129Z,68.00
2023-05-14T08:42:48.208Z,67.40
2023-05-14T08:45:25.842Z,66.90
2023-05-14T08:47:53.652Z,65.90
2023-05-14T08:50:22.898Z,66.30
2023-05-14T08:52:50.913Z,66.20
2023-05-14T08:55:18.268Z,66.00
2023-05-14T08:57:46.629Z,66.40
2023-05-14T09:00:15.748Z,66.30
2023-05-14T09:02:47.842Z,66.10
2023-05-14T09:05:15.939Z,66.10
2023-05-14T09:07:43.127Z,65.90
2023-05-14T09:10:11.452Z,65.80
2023-05-14T09:12:38.496Z,65.50
2023-05-14T09:15:07.796Z,65.60
2023-05-14T09:17:35.328Z,65.50
2023-05-14T09:20:03.197Z,65.40
2023-05-14T09:22:33.556Z,65.50
2023-05-14T09:25:09.869Z,65.50
2023-05-14T09:27:37.119Z,64.80
2023-05-14T09:30:11.093Z,65.50
2023-05-14T09:32:48.430Z,65.00
2023-05-14T09:35:24.651Z,64.90
2023-05-14T09:37:54.420Z,64.50
2023-05-14T09:40:24.733Z,64.60
2023-05-14T09:42:52.259Z,64.60
2023-05-14T09:45:19.329Z,64.20
2023-05-14T09:47:46.627Z,64.10
2023-05-14T09:50:13.957Z,63.90
2023-05-14T09:52:41.387Z,63.70
2023-05-14T09:55:09.206Z,63.60
2023-05-14T09:57:36.763Z,63.50
2023-05-14T10:00:04.627Z,63.40
2023-05-14T10:02:41.389Z,63.20
2023-05-14T10:05:09.810Z,63.00
2023-05-14T10:07:46.425Z,63.10
2023-05-14T10:10:17.262Z,63.10
2023-05-14T10:12:52.646Z,63.30
2023-05-14T10:15:28.485Z,63.20
2023-05-14T10:17:59.449Z,62.90
2023-05-14T10:20:28.072Z,63.20
2023-05-14T10:22:56.238Z,63.40
2023-05-14T10:25:24.125Z,63.70
2023-05-14T10:27:51.578Z,64.00
2023-05-14T10:30:25.615Z,64.00
2023-05-14T10:33:10.436Z,64.00
2023-05-14T10:36:07.445Z,63.90
2023-05-14T10:38:37.027Z,63.40
2023-05-14T10:41:08.096Z,64.00
2023-05-14T10:43:40.917Z,63.80
2023-05-14T10:46:10.438Z,63.90
2023-05-14T10:48:39.819Z,64.00
2023-05-14T10:51:10.844Z,64.00
2023-05-14T10:53:43.306Z,64.10
2023-05-14T10:56:13.710Z,63.80
2023-05-14T10:58:44.208Z,64.00
2023-05-14T11:01:13.488Z,64.00
2023-05-14T11:03:45.226Z,64.00
2023-05-14T11:06:15.319Z,63.80
2023-05-14T11:08:42.950Z,63.70
2023-05-14T11:11:11.085Z,63.70
2023-05-14T11:13:38.816Z,63.70
2023-05-14T11:18:38.872Z,63.30
2023-05-14T11:21:06.409Z,63.20
2023-05-14T11:23:33.657Z,63.20
2023-05-14T11:26:00.835Z,63.10
2023-05-14T11:28:27.926Z,63.10
2023-05-14T11:30:55.096Z,63.10
2023-05-14T11:33:22.288Z,63.00
2023-05-14T11:35:49.388Z,62.90
2023-05-14T11:38:19.210Z,62.80
2023-05-14T11:40:55.990Z,62.70
2023-05-14T11:43:29.530Z,62.70
2023-05-14T11:45:57.116Z,63.00
2023-05-14T11:48:24.654Z,63.10
2023-05-14T11:50:53.129Z,63.10
2023-05-14T11:53:31.117Z,63.10
2023-05-14T11:55:58.425Z,63.10
2023-05-14T11:58:26.564Z,63.00
2023-05-14T12:00:55.979Z,62.80
2023-05-14T12:03:26.380Z,62.70
2023-05-14T12:06:02.472Z,63.00
2023-05-14T12:08:31.808Z,63.30
2023-05-14T12:11:01.028Z,63.50
2023-05-14T12:13:32.812Z,63.80
2023-05-14T12:16:02.471Z,63.80
2023-05-14T12:18:32.166Z,63.80
2023-05-14T12:21:04.601Z,64.10
2023-05-14T12:23:33.041Z,63.70
2023-05-14T12:26:06.835Z,63.70
2023-05-14T12:28:38.040Z,63.40
2023-05-14T12:31:06.170Z,63.40
2023-05-14T12:33:33.357Z,63.30
2023-05-14T12:36:20.592Z,63.10
2023-05-14T12:38:50.429Z,63.00
2023-05-14T12:41:18.485Z,62.50
2023-05-14T12:43:48.040Z,62.30
2023-05-14T12:46:15.980Z,62.20
2023-05-14T12:48:43.202Z,62.10
2023-05-14T12:51:10.535Z,62.10
2023-05-14T12:53:37.770Z,62.10
2023-05-14T12:56:05.729Z,62.10
2023-05-14T12:58:32.801Z,62.10
2023-05-14T13:00:59.965Z,62.00
2023-05-14T13:03:27.476Z,62.10
2023-05-14T13:05:55.018Z,62.10
2023-05-14T13:08:25.128Z,62.10
2023-05-14T13:10:53.698Z,62.20
2023-05-14T13:13:20.972Z,62.50
2023-05-14T13:15:48.405Z,62.40
2023-05-14T13:18:18.500Z,62.20
2023-05-14T13:20:47.576Z,62.50
2023-05-14T13:23:15.333Z,62.40
2023-05-14T13:25:42.471Z,62.30
2023-05-14T13:28:09.795Z,62.00
2023-05-14T13:30:37.008Z,61.80
2023-05-14T13:33:05.750Z,61.50
2023-05-14T13:35:34.711Z,61.40
2023-05-14T13:38:02.070Z,61.10
2023-05-14T13:40:29.165Z,60.90
2023-05-14T13:42:56.317Z,60.70
2023-05-14T13:45:23.626Z,60.70
2023-05-14T13:47:51.558Z,60.50
2023-05-14T13:50:19.005Z,60.50
2023-05-14T13:52:46.009Z,60.50
2023-05-14T13:55:13.082Z,60.60
2023-05-14T13:57:41.895Z,60.60
2023-05-14T14:00:09.775Z,60.80
2023-05-14T14:02:37.077Z,60.90
2023-05-14T14:05:05.523Z,61.00
2023-05-14T14:07:32.707Z,61.10
2023-05-14T14:10:01.639Z,61.20
2023-05-14T14:12:28.950Z,61.30
2023-05-14T14:14:56.076Z,61.30
2023-05-14T14:17:23.216Z,61.50
2023-05-14T14:19:50.664Z,61.70
2023-05-14T14:22:17.997Z,61.70
2023-05-14T14:24:45.061Z,61.80
2023-05-14T14:27:12.278Z,62.10
2023-05-14T14:29:39.318Z,62.30
2023-05-14T14:32:06.967Z,62.40
2023-05-14T14:34:34.123Z,62.60
2023-05-14T14:37:01.197Z,62.70
2023-05-14T14:39:28.685Z,62.70
2023-05-14T14:41:55.803Z,62.80
2023-05-14T14:44:22.913Z,63.10
2023-05-14T14:46:49.943Z,63.20
2023-05-14T14:49:16.956Z,63.30
2023-05-14T14:51:44.160Z,63.40
2023-05-14T14:54:11.286Z,63.60
2023-05-14T14:56:39.341Z,63.70
2023-05-14T14:59:07.239Z,63.90
2023-05-14T15:01:34.516Z,64.00
2023-05-14T15:04:01.634Z,64.10
2023-05-14T15:06:28.780Z,64.30
2023-05-14T15:08:55.915Z,64.40
2023-05-14T15:11:22.982Z,64.40
2023-05-14T15:13:50.063Z,64.70
2023-05-14T15:16:17.222Z,64.80
2023-05-14T15:18:44.483Z,64.90
2023-05-14T15:21:11.641Z,65.20
2023-05-14T15:23:38.703Z,65.30
2023-05-14T15:26:06.189Z,65.40
2023-05-14T15:28:33.368Z,65.40
2023-05-14T15:31:02.513Z,65.50
2023-05-14T15:33:29.767Z,65.60
2023-05-14T15:35:56.854Z,65.70
2023-05-14T15:38:24.165Z,65.70
2023-05-14T15:40:51.308Z,65.80
2023-05-14T15:43:18.701Z,65.80
2023-05-14T15:45:46.327Z,65.90
2023-05-14T15:48:13.550Z,66.00
2023-05-14T15:50:40.786Z,66.10
2023-05-14T15:53:08.009Z,66.20
2023-05-14T15:55:35.135Z,66.20
2023-05-14T15:58:03.527Z,66.30
2023-05-14T16:00:30.717Z,66.30
2023-05-14T16:02:58.026Z,66.40
2023-05-14T16:05:25.274Z,66.40
2023-05-14T16:07:52.622Z,66.40
2023-05-14T16:10:21.707Z,66.50
2023-05-14T16:12:48.992Z,66.50
2023-05-14T16:15:16.199Z,66.50
2023-05-14T16:17:43.346Z,66.50
2023-05-14T16:20:11.653Z,66.60
2023-05-14T16:22:38.773Z,66.70
2023-05-14T16:25:06.412Z,66.90
2023-05-14T16:27:33.921Z,67.00
2023-05-14T16:30:00.971Z,67.10
2023-05-14T16:32:28.142Z,67.20
2023-05-14T16:34:56.609Z,67.30
2023-05-14T16:37:23.719Z,67.30
2023-05-14T16:39:50.855Z,67.40
2023-05-14T16:42:18.047Z,67.50
2023-05-14T16:44:45.193Z,67.60
2023-05-14T16:47:13.103Z,67.60
2023-05-14T16:49:40.211Z,67.70
2023-05-14T16:52:08.451Z,67.80
2023-05-14T16:54:35.760Z,68.00
2023-05-14T16:57:02.826Z,68.00
2023-05-14T16:59:29.954Z,68.00
2023-05-14T17:01:57.194Z,68.00
2023-05-14T17:04:26.623Z,68.00
2023-05-14T17:06:54.441Z,67.90
2023-05-14T17:09:21.651Z,67.90
2023-05-14T17:11:48.719Z,68.00
2023-05-14T17:14:16.194Z,68.10
2023-05-14T17:16:43.487Z,68.00
2023-05-14T17:19:11.030Z,68.00
2023-05-14T17:21:38.311Z,68.00
2023-05-14T17:24:05.931Z,68.10
2023-05-14T17:26:33.323Z,68.30
2023-05-14T17:29:00.573Z,68.40
2023-05-14T17:31:27.731Z,68.40
2023-05-14T17:33:54.913Z,68.30
2023-05-14T17:36:25.342Z,68.20
2023-05-14T17:38:52.666Z,68.20
2023-05-14T17:41:19.938Z,68.10
2023-05-14T17:43:47.432Z,68.20
2023-05-14T17:46:14.761Z,68.30
2023-05-14T17:48:41.954Z,68.30
2023-05-14T17:51:09.267Z,68.40
2023-05-14T17:53:36.314Z,68.40
2023-05-14T17:56:03.971Z,68.40
2023-05-14T17:58:31.153Z,68.40
2023-05-14T18:01:03.666Z,68.50
2023-05-14T18:03:32.480Z,68.60
2023-05-14T18:05:59.845Z,68.80
2023-05-14T18:08:26.940Z,68.80
2023-05-14T18:10:54.089Z,69.00
2023-05-14T18:13:21.265Z,69.00
2023-05-14T18:15:51.436Z,69.10
2023-05-14T18:18:18.902Z,69.10
2023-05-14T18:20:47.405Z,69.10
2023-05-14T18:23:15.496Z,69.20
2023-05-14T18:25:43.219Z,69.20
2023-05-14T18:28:10.623Z,69.30
2023-05-14T18:30:38.749Z,69.30
2023-05-14T18:33:11.200Z,69.30
2023-05-14T18:35:42.218Z,69.50
2023-05-14T18:38:11.929Z,69.40
2023-05-14T18:40:39.238Z,69.40
2023-05-14T18:43:12.163Z,69.50
2023-05-14T18:45:40.732Z,69.60
2023-05-14T18:48:09.533Z,69.70
2023-05-14T18:50:39.231Z,69.80
2023-05-14T18:53:08.571Z,69.70
2023-05-14T18:55:41.554Z,69.70
2023-05-14T18:58:09.146Z,69.80
2023-05-14T19:00:39.385Z,69.80
2023-05-14T19:03:06.581Z,69.90
2023-05-14T19:05:33.937Z,69.90
2023-05-14T19:08:01.150Z,70.00
2023-05-14T19:10:28.220Z,70.10
2023-05-14T19:12:55.486Z,70.10
2023-05-14T19:15:22.917Z,70.10
2023-05-14T19:17:50.345Z,70.30
2023-05-14T19:20:17.586Z,70.30
2023-05-14T19:22:44.636Z,70.40
2023-05-14T19:25:11.679Z,70.40
2023-05-14T19:27:39.279Z,70.50
2023-05-14T19:30:07.486Z,70.60
2023-05-14T19:32:36.174Z,70.60
2023-05-14T19:35:03.962Z,70.60
2023-05-14T19:37:31.319Z,70.60
2023-05-14T19:39:58.350Z,70.60
2023-05-14T19:42:25.403Z,70.60
2023-05-14T19:44:52.516Z,70.70
2023-05-14T19:47:19.822Z,70.70
2023-05-14T19:49:46.899Z,70.70
2023-05-14T19:52:13.961Z,70.80
2023-05-14T19:54:41.059Z,70.80
2023-05-14T19:57:09.613Z,70.80
2023-05-14T19:59:39.964Z,70.90
2023-05-14T20:02:18.258Z,70.90
2023-05-14T20:04:46.313Z,71.00
2023-05-14T20:07:24.137Z,70.90
2023-05-14T20:09:54.244Z,71.00
2023-05-14T20:12:22.795Z,71.00
2023-05-14T20:14:53.133Z,71.00
2023-05-14T20:17:23.734Z,71.10
2023-05-14T20:19:58.580Z,71.10
2023-05-14T20:25:36.162Z,71.20
2023-05-14T20:28:24.127Z,71.80
2023-05-14T20:30:51.350Z,71.10
2023-05-14T20:33:28.269Z,71.10
2023-05-14T20:39:57.734Z,71.20
2023-05-14T20:42:29.709Z,71.20
2023-05-14T20:45:45.381Z,71.20
2023-05-14T20:48:16.227Z,71.10
2023-05-14T20:53:29.824Z,71.10
2023-05-14T20:55:58.983Z,71.10
2023-05-14T20:58:26.352Z,71.10
2023-05-14T21:00:58.680Z,71.20
2023-05-14T21:03:47.420Z,71.20
2023-05-14T21:06:15.861Z,71.30
2023-05-14T21:08:43.450Z,71.30
2023-05-14T21:11:10.576Z,71.30
2023-05-14T21:13:37.777Z,71.40
2023-05-14T21:16:05.229Z,71.50
2023-05-14T21:18:32.939Z,71.60
2023-05-14T21:21:00.143Z,71.60
2023-05-14T21:23:27.243Z,71.60
2023-05-14T21:25:55.017Z,71.70
2023-05-14T21:28:22.698Z,71.90
2023-05-14T21:30:51.364Z,71.90
2023-05-14T21:33:19.031Z,71.90
2023-05-14T21:35:46.143Z,72.10
2023-05-14T21:38:13.325Z,72.20
2023-05-14T21:40:41.173Z,72.20
2023-05-14T21:43:08.302Z,72.30
2023-05-14T21:45:35.618Z,72.30
2023-05-14T21:48:02.802Z,72.40
2023-05-14T21:50:29.917Z,72.40
2023-05-14T21:52:57.080Z,72.40
2023-05-14T21:55:24.693Z,72.50
2023-05-14T21:57:52.158Z,72.50
2023-05-14T22:00:23.525Z,72.50
2023-05-14T22:02:52.601Z,72.60
2023-05-14T22:05:20.617Z,72.60
2023-05-14T22:07:48.865Z,72.60
2023-05-14T22:10:16.720Z,72.60
2023-05-14T22:12:45.489Z,72.70
2023-05-14T22:15:13.147Z,72.70
2023-05-14T22:17:40.393Z,72.70
2023-05-14T22:20:10.147Z,72.80
2023-05-14T22:22:37.435Z,72.80
2023-05-14T22:25:16.535Z,72.90
2023-05-14T22:27:43.581Z,73.20
2023-05-14T22:30:11.322Z,72.90
2023-05-14T22:32:38.461Z,72.90
2023-05-14T22:35:06.006Z,72.90
2023-05-14T22:37:33.084Z,72.90
2023-05-14T22:40:02.231Z,72.90
2023-05-14T22:42:31.842Z,73.00
2023-05-14T22:45:00.351Z,72.90
2023-05-14T22:47:27.708Z,72.90
2023-05-14T22:49:54.804Z,73.00
2023-05-14T22:52:23.206Z,73.00
2023-05-14T22:54:52.282Z,73.00
2023-05-14T22:57:21.387Z,73.00
2023-05-14T22:59:48.461Z,73.10
2023-05-14T23:02:15.764Z,73.10
2023-05-14T23:04:44.160Z,73.10
2023-05-14T23:07:23.455Z,73.10
2023-05-14T23:10:05.140Z,73.10
2023-05-14T23:12:35.941Z,73.10
2023-05-14T23:15:06.198Z,73.10
2023-05-14T23:17:33.349Z,73.10
2023-05-14T23:20:22.480Z,73.10
2023-05-14T23:22:51.547Z,73.30
2023-05-14T23:25:18.796Z,73.20
2023-05-14T23:27:50.510Z,73.20
2023-05-14T23:30:21.220Z,73.30
2023-05-14T23:32:48.449Z,73.30
2023-05-14T23:35:15.596Z,73.30
2023-05-14T23:37:47.311Z,73.40
2023-05-14T23:40:15.846Z,73.40
2023-05-14T23:42:43.613Z,74.20
2023-05-14T23:45:12.066Z,73.00
2023-05-14T23:47:39.635Z,73.20
2023-05-14T23:50:07.270Z,73.30
2023-05-14T23:52:34.322Z,73.40
2023-05-14T23:55:01.460Z,73.40
2023-05-14T23:57:28.710Z,73.50
2023-05-14T23:59:55.909Z,73.50
